sensor_id;sensor_type;location;lat;lon;timestamp;temperature;humidity
48876;DHT22;34689;51.644;5.618;2023-03-18T00:00:45;13.40;99.90
48876;DHT22;34689;51.644;5.618;2023-03-18T00:03:11;13.40;99.90
48876;DHT22;34689;51.644;5.618;2023-03-18T00:05:37;13.40;99.90
48876;DHT22;34689;51.644;5.618;2023-03-18T00:08:04;13.40;99.90
48876;DHT22;34689;51.644;5.618;2023-03-18T00:10:31;13.30;99.90
48876;DHT22;34689;51.644;5.618;2023-03-18T00:12:57;13.30;99.90
48876;DHT22;34689;51.644;5.618;2023-03-18T00:15:26;13.30;99.90
48876;DHT22;34689;51.644;5.618;2023-03-18T00:17:53;13.30;99.90
48876;DHT22;34689;51.644;5.618;2023-03-18T00:20:19;13.30;99.90
48876;DHT22;34689;51.644;5.618;2023-03-18T00:22:53;13.30;99.90
48876;DHT22;34689;51.644;5.618;2023-03-18T00:25:20;13.20;99.90
48876;DHT22;34689;51.644;5.618;2023-03-18T00:27:45;13.20;99.90
48876;DHT22;34689;51.644;5.618;2023-03-18T00:30:12;13.20;99.90
48876;DHT22;34689;51.644;5.618;2023-03-18T00:32:38;13.20;99.90
48876;DHT22;34689;51.644;5.618;2023-03-18T00:35:04;13.20;99.90
48876;DHT22;34689;51.644;5.618;2023-03-18T00:37:30;13.10;99.90
48876;DHT22;34689;51.644;5.618;2023-03-18T00:40:07;13.10;99.90
48876;DHT22;34689;51.644;5.618;2023-03-18T00:42:36;13.10;99.90
48876;DHT22;34689;51.644;5.618;2023-03-18T00:45:13;13.10;99.90
48876;DHT22;34689;51.644;5.618;2023-03-18T00:47:40;13.00;99.90
48876;DHT22;34689;51.644;5.618;2023-03-18T00:50:07;13.10;99.90
48876;DHT22;34689;51.644;5.618;2023-03-18T00:52:34;13.00;99.90
48876;DHT22;34689;51.644;5.618;2023-03-18T00:55:00;13.00;99.90
48876;DHT22;34689;51.644;5.618;2023-03-18T00:57:27;13.00;99.90
48876;DHT22;34689;51.644;5.618;2023-03-18T00:59:54;13.00;99.90
48876;DHT22;34689;51.644;5.618;2023-03-18T01:02:20;13.00;99.90
48876;DHT22;34689;51.644;5.618;2023-03-18T01:04:47;13.00;99.90
48876;DHT22;34689;51.644;5.618;2023-03-18T01:07:13;13.00;99.90
48876;DHT22;34689;51.644;5.618;2023-03-18T01:09:39;13.00;99.90
48876;DHT22;34689;51.644;5.618;2023-03-18T01:12:09;13.00;99.90
48876;DHT22;34689;51.644;5.618;2023-03-18T01:14:36;13.10;99.90
48876;DHT22;34689;51.644;5.618;2023-03-18T01:17:03;13.10;99.90
48876;DHT22;34689;51.644;5.618;2023-03-18T01:19:32;13.00;99.90
48876;DHT22;34689;51.644;5.618;2023-03-18T01:22:00;13.00;99.90
48876;DHT22;34689;51.644;5.618;2023-03-18T01:24:26;13.00;99.90
48876;DHT22;34689;51.644;5.618;2023-03-18T01:26:53;13.00;99.90
48876;DHT22;34689;51.644;5.618;2023-03-18T01:29:19;13.00;99.90
48876;DHT22;34689;51.644;5.618;2023-03-18T01:31:47;13.00;99.90
48876;DHT22;34689;51.644;5.618;2023-03-18T01:34:13;13.00;99.90
48876;DHT22;34689;51.644;5.618;2023-03-18T01:36:41;13.00;99.90
48876;DHT22;34689;51.644;5.618;2023-03-18T01:39:07;13.00;99.90
48876;DHT22;34689;51.644;5.618;2023-03-18T01:41:35;13.00;99.90
48876;DHT22;34689;51.644;5.618;2023-03-18T01:44:01;13.00;99.90
48876;DHT22;34689;51.644;5.618;2023-03-18T01:46:33;13.00;99.90
48876;DHT22;34689;51.644;5.618;2023-03-18T01:49:03;13.00;99.90
48876;DHT22;34689;51.644;5.618;2023-03-18T01:51:29;13.00;99.90
48876;DHT22;34689;51.644;5.618;2023-03-18T01:53:59;12.90;99.90
48876;DHT22;34689;51.644;5.618;2023-03-18T01:56:26;12.90;99.90
48876;DHT22;34689;51.644;5.618;2023-03-18T01:58:57;12.90;99.90
48876;DHT22;34689;51.644;5.618;2023-03-18T02:01:31;12.80;99.90
48876;DHT22;34689;51.644;5.618;2023-03-18T02:04:00;12.80;99.90
48876;DHT22;34689;51.644;5.618;2023-03-18T02:06:27;12.80;99.90
48876;DHT22;34689;51.644;5.618;2023-03-18T02:08:54;12.70;99.90
48876;DHT22;34689;51.644;5.618;2023-03-18T02:11:22;12.70;99.90
48876;DHT22;34689;51.644;5.618;2023-03-18T02:13:48;12.70;99.90
48876;DHT22;34689;51.644;5.618;2023-03-18T02:16:22;12.60;99.90
48876;DHT22;34689;51.644;5.618;2023-03-18T02:18:53;12.60;99.90
48876;DHT22;34689;51.644;5.618;2023-03-18T02:27:00;12.50;99.90
48876;DHT22;34689;51.644;5.618;2023-03-18T02:29:30;12.50;99.90
48876;DHT22;34689;51.644;5.618;2023-03-18T02:32:03;12.50;99.90
48876;DHT22;34689;51.644;5.618;2023-03-18T02:34:31;12.40;99.90
48876;DHT22;34689;51.644;5.618;2023-03-18T02:36:57;12.40;99.90
48876;DHT22;34689;51.644;5.618;2023-03-18T02:39:23;12.40;99.90
48876;DHT22;34689;51.644;5.618;2023-03-18T02:41:51;12.40;99.90
48876;DHT22;34689;51.644;5.618;2023-03-18T02:44:18;12.40;99.90
48876;DHT22;34689;51.644;5.618;2023-03-18T02:47:00;12.40;99.90
48876;DHT22;34689;51.644;5.618;2023-03-18T02:49:29;12.40;99.90
48876;DHT22;34689;51.644;5.618;2023-03-18T02:51:55;12.40;99.90
48876;DHT22;34689;51.644;5.618;2023-03-18T02:54:27;12.30;99.90
48876;DHT22;34689;51.644;5.618;2023-03-18T02:56:53;12.30;99.90
48876;DHT22;34689;51.644;5.618;2023-03-18T02:59:22;12.30;99.90
48876;DHT22;34689;51.644;5.618;2023-03-18T03:01:50;12.30;99.90
48876;DHT22;34689;51.644;5.618;2023-03-18T03:04:18;12.30;99.90
48876;DHT22;34689;51.644;5.618;2023-03-18T03:06:44;12.30;99.90
48876;DHT22;34689;51.644;5.618;2023-03-18T03:09:13;12.30;99.90
48876;DHT22;34689;51.644;5.618;2023-03-18T03:11:40;12.30;99.90
48876;DHT22;34689;51.644;5.618;2023-03-18T03:14:07;12.30;99.90
48876;DHT22;34689;51.644;5.618;2023-03-18T03:16:34;12.30;99.90
48876;DHT22;34689;51.644;5.618;2023-03-18T03:19:00;12.30;99.90
48876;DHT22;34689;51.644;5.618;2023-03-18T03:21:26;12.20;99.90
48876;DHT22;34689;51.644;5.618;2023-03-18T03:23:52;12.20;99.90
48876;DHT22;34689;51.644;5.618;2023-03-18T03:26:18;12.20;99.90
48876;DHT22;34689;51.644;5.618;2023-03-18T03:28:45;12.20;99.90
48876;DHT22;34689;51.644;5.618;2023-03-18T03:31:11;12.20;99.90
48876;DHT22;34689;51.644;5.618;2023-03-18T03:33:38;12.20;99.90
48876;DHT22;34689;51.644;5.618;2023-03-18T03:36:07;12.20;99.90
48876;DHT22;34689;51.644;5.618;2023-03-18T03:38:33;12.20;99.90
48876;DHT22;34689;51.644;5.618;2023-03-18T03:40:59;12.10;99.90
48876;DHT22;34689;51.644;5.618;2023-03-18T03:43:25;12.10;99.90
48876;DHT22;34689;51.644;5.618;2023-03-18T03:45:50;12.10;99.90
48876;DHT22;34689;51.644;5.618;2023-03-18T03:48:16;12.10;99.90
48876;DHT22;34689;51.644;5.618;2023-03-18T03:50:42;12.10;99.90
48876;DHT22;34689;51.644;5.618;2023-03-18T03:53:08;12.10;99.90
48876;DHT22;34689;51.644;5.618;2023-03-18T03:55:34;12.10;99.90
48876;DHT22;34689;51.644;5.618;2023-03-18T03:58:00;12.10;99.90
48876;DHT22;34689;51.644;5.618;2023-03-18T04:00:26;12.10;99.90
48876;DHT22;34689;51.644;5.618;2023-03-18T04:02:52;12.10;99.90
48876;DHT22;34689;51.644;5.618;2023-03-18T04:05:20;12.10;99.90
48876;DHT22;34689;51.644;5.618;2023-03-18T04:07:47;12.10;99.90
48876;DHT22;34689;51.644;5.618;2023-03-18T04:10:16;12.10;99.90
48876;DHT22;34689;51.644;5.618;2023-03-18T04:12:43;12.10;99.90
48876;DHT22;34689;51.644;5.618;2023-03-18T04:15:13;12.10;99.90
48876;DHT22;34689;51.644;5.618;2023-03-18T04:17:39;12.00;99.90
48876;DHT22;34689;51.644;5.618;2023-03-18T04:20:06;12.10;99.90
48876;DHT22;34689;51.644;5.618;2023-03-18T04:22:35;12.00;99.90
48876;DHT22;34689;51.644;5.618;2023-03-18T04:25:02;12.00;99.90
48876;DHT22;34689;51.644;5.618;2023-03-18T04:27:28;12.10;99.90
48876;DHT22;34689;51.644;5.618;2023-03-18T04:29:54;12.10;99.90
48876;DHT22;34689;51.644;5.618;2023-03-18T04:32:20;12.10;99.90
48876;DHT22;34689;51.644;5.618;2023-03-18T04:34:48;12.10;99.90
48876;DHT22;34689;51.644;5.618;2023-03-18T04:37:15;12.10;99.90
48876;DHT22;34689;51.644;5.618;2023-03-18T04:39:45;12.10;99.90
48876;DHT22;34689;51.644;5.618;2023-03-18T04:42:11;12.10;99.90
48876;DHT22;34689;51.644;5.618;2023-03-18T04:44:37;12.10;99.90
48876;DHT22;34689;51.644;5.618;2023-03-18T04:47:03;12.00;99.90
48876;DHT22;34689;51.644;5.618;2023-03-18T04:49:29;12.10;99.90
48876;DHT22;34689;51.644;5.618;2023-03-18T04:51:54;12.10;99.90
48876;DHT22;34689;51.644;5.618;2023-03-18T04:54:20;12.10;99.90
48876;DHT22;34689;51.644;5.618;2023-03-18T04:56:46;12.10;99.90
48876;DHT22;34689;51.644;5.618;2023-03-18T04:59:12;12.10;99.90
48876;DHT22;34689;51.644;5.618;2023-03-18T05:01:38;12.10;99.90
48876;DHT22;34689;51.644;5.618;2023-03-18T05:04:03;12.00;99.90
48876;DHT22;34689;51.644;5.618;2023-03-18T05:06:30;12.10;99.90
48876;DHT22;34689;51.644;5.618;2023-03-18T05:08:58;12.00;99.90
48876;DHT22;34689;51.644;5.618;2023-03-18T05:11:25;12.00;99.90
48876;DHT22;34689;51.644;5.618;2023-03-18T05:13:53;12.00;99.90
48876;DHT22;34689;51.644;5.618;2023-03-18T05:16:19;12.00;99.90
48876;DHT22;34689;51.644;5.618;2023-03-18T05:18:45;12.00;99.90
48876;DHT22;34689;51.644;5.618;2023-03-18T05:21:11;12.00;99.90
48876;DHT22;34689;51.644;5.618;2023-03-18T05:23:37;12.00;99.90
48876;DHT22;34689;51.644;5.618;2023-03-18T05:26:04;12.00;99.90
48876;DHT22;34689;51.644;5.618;2023-03-18T05:28:31;12.00;99.90
48876;DHT22;34689;51.644;5.618;2023-03-18T05:30:57;12.00;99.90
48876;DHT22;34689;51.644;5.618;2023-03-18T05:33:23;11.90;99.90
48876;DHT22;34689;51.644;5.618;2023-03-18T05:35:48;11.90;99.90
48876;DHT22;34689;51.644;5.618;2023-03-18T05:38:15;12.00;99.90
48876;DHT22;34689;51.644;5.618;2023-03-18T05:40:40;12.00;99.90
48876;DHT22;34689;51.644;5.618;2023-03-18T05:43:06;12.00;99.90
48876;DHT22;34689;51.644;5.618;2023-03-18T05:45:32;12.00;99.90
48876;DHT22;34689;51.644;5.618;2023-03-18T05:47:57;11.90;99.90
48876;DHT22;34689;51.644;5.618;2023-03-18T05:50:32;12.00;99.90
48876;DHT22;34689;51.644;5.618;2023-03-18T05:52:58;11.90;99.90
48876;DHT22;34689;51.644;5.618;2023-03-18T05:55:26;11.90;99.90
48876;DHT22;34689;51.644;5.618;2023-03-18T05:57:55;11.90;99.90
48876;DHT22;34689;51.644;5.618;2023-03-18T06:00:21;11.90;99.90
48876;DHT22;34689;51.644;5.618;2023-03-18T06:02:47;11.90;99.90
48876;DHT22;34689;51.644;5.618;2023-03-18T06:05:15;11.90;99.90
48876;DHT22;34689;51.644;5.618;2023-03-18T06:07:42;11.90;99.90
48876;DHT22;34689;51.644;5.618;2023-03-18T06:10:08;11.90;99.90
48876;DHT22;34689;51.644;5.618;2023-03-18T06:12:35;11.90;99.90
48876;DHT22;34689;51.644;5.618;2023-03-18T06:15:00;11.90;99.90
48876;DHT22;34689;51.644;5.618;2023-03-18T06:17:29;11.90;99.90
48876;DHT22;34689;51.644;5.618;2023-03-18T06:19:54;11.90;99.90
48876;DHT22;34689;51.644;5.618;2023-03-18T06:22:23;11.80;99.90
48876;DHT22;34689;51.644;5.618;2023-03-18T06:24:49;11.80;99.90
48876;DHT22;34689;51.644;5.618;2023-03-18T06:27:14;11.90;99.90
48876;DHT22;34689;51.644;5.618;2023-03-18T06:29:40;11.90;99.90
48876;DHT22;34689;51.644;5.618;2023-03-18T06:32:06;11.90;99.90
48876;DHT22;34689;51.644;5.618;2023-03-18T06:34:32;11.80;99.90
48876;DHT22;34689;51.644;5.618;2023-03-18T06:36:59;11.80;99.90
48876;DHT22;34689;51.644;5.618;2023-03-18T06:39:25;11.80;99.90
48876;DHT22;34689;51.644;5.618;2023-03-18T06:41:53;11.80;99.90
48876;DHT22;34689;51.644;5.618;2023-03-18T06:44:20;11.80;99.90
48876;DHT22;34689;51.644;5.618;2023-03-18T06:46:46;11.80;99.90
48876;DHT22;34689;51.644;5.618;2023-03-18T06:49:11;11.80;99.90
48876;DHT22;34689;51.644;5.618;2023-03-18T06:51:37;11.80;99.90
48876;DHT22;34689;51.644;5.618;2023-03-18T06:54:03;11.80;99.90
48876;DHT22;34689;51.644;5.618;2023-03-18T06:56:30;11.80;99.90
48876;DHT22;34689;51.644;5.618;2023-03-18T06:58:58;11.80;99.90
48876;DHT22;34689;51.644;5.618;2023-03-18T07:01:25;11.80;99.90
48876;DHT22;34689;51.644;5.618;2023-03-18T07:03:50;11.80;99.90
48876;DHT22;34689;51.644;5.618;2023-03-18T07:06:16;11.80;99.90
48876;DHT22;34689;51.644;5.618;2023-03-18T07:08:43;11.80;99.90
48876;DHT22;34689;51.644;5.618;2023-03-18T07:11:11;11.80;99.90
48876;DHT22;34689;51.644;5.618;2023-03-18T07:13:37;11.80;99.90
48876;DHT22;34689;51.644;5.618;2023-03-18T07:16:03;11.80;99.90
48876;DHT22;34689;51.644;5.618;2023-03-18T07:18:31;11.80;99.90
48876;DHT22;34689;51.644;5.618;2023-03-18T07:20:57;11.80;99.90
48876;DHT22;34689;51.644;5.618;2023-03-18T07:23:23;11.90;99.90
48876;DHT22;34689;51.644;5.618;2023-03-18T07:25:51;11.90;99.90
48876;DHT22;34689;51.644;5.618;2023-03-18T07:28:17;11.90;99.90
48876;DHT22;34689;51.644;5.618;2023-03-18T07:30:42;11.90;99.90
48876;DHT22;34689;51.644;5.618;2023-03-18T07:33:11;11.90;99.90
48876;DHT22;34689;51.644;5.618;2023-03-18T07:35:38;12.00;99.90
48876;DHT22;34689;51.644;5.618;2023-03-18T07:38:06;12.00;99.90
48876;DHT22;34689;51.644;5.618;2023-03-18T07:40:32;12.00;99.90
48876;DHT22;34689;51.644;5.618;2023-03-18T07:42:58;12.00;99.90
48876;DHT22;34689;51.644;5.618;2023-03-18T07:45:23;12.00;99.90
48876;DHT22;34689;51.644;5.618;2023-03-18T07:47:50;12.00;99.90
48876;DHT22;34689;51.644;5.618;2023-03-18T07:50:16;12.10;99.90
48876;DHT22;34689;51.644;5.618;2023-03-18T07:52:42;12.10;99.90
48876;DHT22;34689;51.644;5.618;2023-03-18T07:55:08;12.20;99.90
48876;DHT22;34689;51.644;5.618;2023-03-18T07:57:37;12.20;99.90
48876;DHT22;34689;51.644;5.618;2023-03-18T08:00:04;12.20;99.90
48876;DHT22;34689;51.644;5.618;2023-03-18T08:02:30;12.20;99.90
48876;DHT22;34689;51.644;5.618;2023-03-18T08:04:56;12.30;99.90
48876;DHT22;34689;51.644;5.618;2023-03-18T08:07:22;12.30;99.90
48876;DHT22;34689;51.644;5.618;2023-03-18T08:09:51;12.30;99.90
48876;DHT22;34689;51.644;5.618;2023-03-18T08:12:17;12.40;99.90
48876;DHT22;34689;51.644;5.618;2023-03-18T08:14:43;12.40;99.90
48876;DHT22;34689;51.644;5.618;2023-03-18T08:17:09;12.40;99.90
48876;DHT22;34689;51.644;5.618;2023-03-18T08:19:35;12.40;99.90
48876;DHT22;34689;51.644;5.618;2023-03-18T08:22:00;12.50;99.90
48876;DHT22;34689;51.644;5.618;2023-03-18T08:24:26;12.50;99.90
48876;DHT22;34689;51.644;5.618;2023-03-18T08:26:52;12.60;99.90
48876;DHT22;34689;51.644;5.618;2023-03-18T08:29:18;12.60;99.90
48876;DHT22;34689;51.644;5.618;2023-03-18T08:31:43;12.60;99.90
48876;DHT22;34689;51.644;5.618;2023-03-18T08:34:09;12.70;99.90
48876;DHT22;34689;51.644;5.618;2023-03-18T08:36:38;12.70;99.90
48876;DHT22;34689;51.644;5.618;2023-03-18T08:39:04;12.80;99.90
48876;DHT22;34689;51.644;5.618;2023-03-18T08:41:30;12.80;99.90
48876;DHT22;34689;51.644;5.618;2023-03-18T08:43:56;12.80;99.90
48876;DHT22;34689;51.644;5.618;2023-03-18T08:46:23;12.90;99.90
48876;DHT22;34689;51.644;5.618;2023-03-18T08:48:49;12.90;99.90
48876;DHT22;34689;51.644;5.618;2023-03-18T08:51:18;13.00;99.90
48876;DHT22;34689;51.644;5.618;2023-03-18T08:53:44;13.00;99.90
48876;DHT22;34689;51.644;5.618;2023-03-18T08:56:09;13.10;99.90
48876;DHT22;34689;51.644;5.618;2023-03-18T08:58:37;13.10;99.90
48876;DHT22;34689;51.644;5.618;2023-03-18T09:01:03;13.10;99.90
48876;DHT22;34689;51.644;5.618;2023-03-18T09:03:30;13.20;99.90
48876;DHT22;34689;51.644;5.618;2023-03-18T09:05:56;13.30;99.90
48876;DHT22;34689;51.644;5.618;2023-03-18T09:08:23;13.40;99.90
48876;DHT22;34689;51.644;5.618;2023-03-18T09:10:52;13.40;99.90
48876;DHT22;34689;51.644;5.618;2023-03-18T09:13:21;13.50;99.90
48876;DHT22;34689;51.644;5.618;2023-03-18T09:15:47;13.50;99.90
48876;DHT22;34689;51.644;5.618;2023-03-18T09:18:14;13.60;99.90
48876;DHT22;34689;51.644;5.618;2023-03-18T09:20:44;13.70;99.90
48876;DHT22;34689;51.644;5.618;2023-03-18T09:23:11;13.80;99.90
48876;DHT22;34689;51.644;5.618;2023-03-18T09:25:40;13.90;99.90
48876;DHT22;34689;51.644;5.618;2023-03-18T09:28:11;13.90;99.90
48876;DHT22;34689;51.644;5.618;2023-03-18T09:30:38;14.00;99.90
48876;DHT22;34689;51.644;5.618;2023-03-18T09:33:04;14.10;99.90
48876;DHT22;34689;51.644;5.618;2023-03-18T09:35:34;14.20;99.90
48876;DHT22;34689;51.644;5.618;2023-03-18T09:38:00;14.20;99.90
48876;DHT22;34689;51.644;5.618;2023-03-18T09:40:27;14.30;99.90
48876;DHT22;34689;51.644;5.618;2023-03-18T09:56:51;19.20;99.90
48876;DHT22;34689;51.644;5.618;2023-03-18T09:59:21;20.80;99.90
48876;DHT22;34689;51.644;5.618;2023-03-18T10:01:52;21.90;99.90
48876;DHT22;34689;51.644;5.618;2023-03-18T10:04:25;21.70;99.90
48876;DHT22;34689;51.644;5.618;2023-03-18T10:06:58;21.70;99.90
48876;DHT22;34689;51.644;5.618;2023-03-18T10:09:40;21.90;99.90
48876;DHT22;34689;51.644;5.618;2023-03-18T10:12:35;22.50;99.90
48876;DHT22;34689;51.644;5.618;2023-03-18T10:15:22;23.20;99.90
48876;DHT22;34689;51.644;5.618;2023-03-18T10:17:53;24.20;99.90
48876;DHT22;34689;51.644;5.618;2023-03-18T10:23:35;22.40;99.90
48876;DHT22;34689;51.644;5.618;2023-03-18T10:26:29;21.20;99.90
48876;DHT22;34689;51.644;5.618;2023-03-18T10:34:26;18.80;99.90
48876;DHT22;34689;51.644;5.618;2023-03-18T10:39:58;18.10;99.90
48876;DHT22;34689;51.644;5.618;2023-03-18T10:42:29;18.00;99.90
48876;DHT22;34689;51.644;5.618;2023-03-18T10:45:08;17.90;99.90
48876;DHT22;34689;51.644;5.618;2023-03-18T10:47:45;17.70;99.90
48876;DHT22;34689;51.644;5.618;2023-03-18T10:50:22;17.60;99.90
48876;DHT22;34689;51.644;5.618;2023-03-18T10:55:34;17.50;99.90
48876;DHT22;34689;51.644;5.618;2023-03-18T10:58:16;17.40;99.90
48876;DHT22;34689;51.644;5.618;2023-03-18T11:00:42;17.30;99.90
48876;DHT22;34689;51.644;5.618;2023-03-18T11:03:40;17.30;99.90
48876;DHT22;34689;51.644;5.618;2023-03-18T11:06:16;17.30;99.90
48876;DHT22;34689;51.644;5.618;2023-03-18T11:08:46;17.20;99.90
48876;DHT22;34689;51.644;5.618;2023-03-18T11:11:30;17.10;99.90
48876;DHT22;34689;51.644;5.618;2023-03-18T11:14:03;17.00;99.90
48876;DHT22;34689;51.644;5.618;2023-03-18T11:19:01;16.90;99.90
48876;DHT22;34689;51.644;5.618;2023-03-18T11:21:33;16.90;99.90
48876;DHT22;34689;51.644;5.618;2023-03-18T11:24:00;16.80;99.90
48876;DHT22;34689;51.644;5.618;2023-03-18T11:26:55;16.80;99.90
48876;DHT22;34689;51.644;5.618;2023-03-18T11:29:33;16.60;99.90
48876;DHT22;34689;51.644;5.618;2023-03-18T11:32:00;16.50;99.90
48876;DHT22;34689;51.644;5.618;2023-03-18T11:34:28;16.40;99.90
48876;DHT22;34689;51.644;5.618;2023-03-18T11:36:55;16.40;99.90
48876;DHT22;34689;51.644;5.618;2023-03-18T11:39:27;16.20;99.90
48876;DHT22;34689;51.644;5.618;2023-03-18T11:41:53;16.20;99.90
48876;DHT22;34689;51.644;5.618;2023-03-18T11:44:28;16.10;99.90
48876;DHT22;34689;51.644;5.618;2023-03-18T11:49:26;16.00;99.90
48876;DHT22;34689;51.644;5.618;2023-03-18T12:02:48;15.90;99.90
48876;DHT22;34689;51.644;5.618;2023-03-18T12:14:38;15.80;99.90
48876;DHT22;34689;51.644;5.618;2023-03-18T12:28:05;15.70;99.90
48876;DHT22;34689;51.644;5.618;2023-03-18T12:41:14;15.50;99.90
48876;DHT22;34689;51.644;5.618;2023-03-18T12:46:38;15.50;99.90
48876;DHT22;34689;51.644;5.618;2023-03-18T12:49:11;15.50;99.90
48876;DHT22;34689;51.644;5.618;2023-03-18T12:51:49;15.40;99.90
48876;DHT22;34689;51.644;5.618;2023-03-18T12:54:26;15.40;99.90
48876;DHT22;34689;51.644;5.618;2023-03-18T12:57:03;15.40;99.90
48876;DHT22;34689;51.644;5.618;2023-03-18T12:59:53;15.40;99.90
48876;DHT22;34689;51.644;5.618;2023-03-18T13:04:58;15.40;99.90
48876;DHT22;34689;51.644;5.618;2023-03-18T13:08:34;15.40;99.90
48876;DHT22;34689;51.644;5.618;2023-03-18T13:10:35;15.30;99.90
48876;DHT22;34689;51.644;5.618;2023-03-18T13:13:05;15.40;99.90
48876;DHT22;34689;51.644;5.618;2023-03-18T13:15:43;15.30;99.90
48876;DHT22;34689;51.644;5.618;2023-03-18T13:21:00;15.30;99.90
48876;DHT22;34689;51.644;5.618;2023-03-18T13:26:37;15.30;99.90
48876;DHT22;34689;51.644;5.618;2023-03-18T13:43:44;15.50;99.90
48876;DHT22;34689;51.644;5.618;2023-03-18T13:46:29;15.50;99.90
48876;DHT22;34689;51.644;5.618;2023-03-18T13:48:56;15.50;99.90
48876;DHT22;34689;51.644;5.618;2023-03-18T13:53:49;15.50;99.90
48876;DHT22;34689;51.644;5.618;2023-03-18T13:56:32;15.50;99.90
48876;DHT22;34689;51.644;5.618;2023-03-18T13:59:06;15.50;99.90
48876;DHT22;34689;51.644;5.618;2023-03-18T14:01:46;15.50;99.90
48876;DHT22;34689;51.644;5.618;2023-03-18T14:04:28;15.50;99.90
48876;DHT22;34689;51.644;5.618;2023-03-18T14:10:14;15.50;99.90
48876;DHT22;34689;51.644;5.618;2023-03-18T14:12:45;15.50;99.90
48876;DHT22;34689;51.644;5.618;2023-03-18T14:17:51;15.40;99.90
48876;DHT22;34689;51.644;5.618;2023-03-18T14:20:24;15.40;99.90
48876;DHT22;34689;51.644;5.618;2023-03-18T14:22:52;15.40;99.90
48876;DHT22;34689;51.644;5.618;2023-03-18T14:25:43;15.40;99.90
48876;DHT22;34689;51.644;5.618;2023-03-18T14:28:16;15.50;99.90
48876;DHT22;34689;51.644;5.618;2023-03-18T14:30:46;15.50;99.90
48876;DHT22;34689;51.644;5.618;2023-03-18T14:36:02;15.60;99.90
48876;DHT22;34689;51.644;5.618;2023-03-18T14:40:59;15.70;99.90
48876;DHT22;34689;51.644;5.618;2023-03-18T14:43:30;15.70;99.90
48876;DHT22;34689;51.644;5.618;2023-03-18T14:46:02;15.90;99.90
48876;DHT22;34689;51.644;5.618;2023-03-18T14:48:31;16.10;99.90
48876;DHT22;34689;51.644;5.618;2023-03-18T14:51:02;16.10;99.90
48876;DHT22;34689;51.644;5.618;2023-03-18T14:53:39;16.20;99.90
48876;DHT22;34689;51.644;5.618;2023-03-18T14:56:16;16.30;99.90
48876;DHT22;34689;51.644;5.618;2023-03-18T14:58:46;16.40;99.90
48876;DHT22;34689;51.644;5.618;2023-03-18T15:01:16;16.50;99.90
48876;DHT22;34689;51.644;5.618;2023-03-18T15:03:49;16.50;99.90
48876;DHT22;34689;51.644;5.618;2023-03-18T15:06:19;16.60;99.90
48876;DHT22;34689;51.644;5.618;2023-03-18T15:08:55;16.60;99.90
48876;DHT22;34689;51.644;5.618;2023-03-18T15:11:23;16.70;99.90
48876;DHT22;34689;51.644;5.618;2023-03-18T15:13:55;16.60;99.90
48876;DHT22;34689;51.644;5.618;2023-03-18T15:16:22;16.60;99.90
48876;DHT22;34689;51.644;5.618;2023-03-18T15:18:54;16.60;99.90
48876;DHT22;34689;51.644;5.618;2023-03-18T15:21:24;16.50;99.90
48876;DHT22;34689;51.644;5.618;2023-03-18T15:23:54;16.50;99.90
48876;DHT22;34689;51.644;5.618;2023-03-18T15:26:30;16.40;99.90
48876;DHT22;34689;51.644;5.618;2023-03-18T15:29:00;16.30;99.90
48876;DHT22;34689;51.644;5.618;2023-03-18T15:31:31;16.30;99.90
48876;DHT22;34689;51.644;5.618;2023-03-18T15:36:55;16.30;99.90
48876;DHT22;34689;51.644;5.618;2023-03-18T15:39:37;16.20;99.90
48876;DHT22;34689;51.644;5.618;2023-03-18T15:42:18;16.20;99.90
48876;DHT22;34689;51.644;5.618;2023-03-18T15:44:59;16.20;99.90
48876;DHT22;34689;51.644;5.618;2023-03-18T15:47:30;16.20;99.90
48876;DHT22;34689;51.644;5.618;2023-03-18T15:50:12;16.10;99.90
48876;DHT22;34689;51.644;5.618;2023-03-18T15:52:42;16.10;99.90
48876;DHT22;34689;51.644;5.618;2023-03-18T15:55:29;16.10;99.90
48876;DHT22;34689;51.644;5.618;2023-03-18T15:57:56;16.10;99.90
48876;DHT22;34689;51.644;5.618;2023-03-18T16:00:23;16.00;99.90
48876;DHT22;34689;51.644;5.618;2023-03-18T16:02:49;16.00;99.90
48876;DHT22;34689;51.644;5.618;2023-03-18T16:05:21;16.00;99.90
48876;DHT22;34689;51.644;5.618;2023-03-18T16:07:48;16.00;99.90
48876;DHT22;34689;51.644;5.618;2023-03-18T16:10:15;16.00;99.90
48876;DHT22;34689;51.644;5.618;2023-03-18T16:12:45;16.00;99.90
48876;DHT22;34689;51.644;5.618;2023-03-18T16:15:18;15.90;99.90
48876;DHT22;34689;51.644;5.618;2023-03-18T16:17:50;15.90;99.90
48876;DHT22;34689;51.644;5.618;2023-03-18T16:20:23;15.90;99.90
48876;DHT22;34689;51.644;5.618;2023-03-18T16:22:49;15.90;99.90
48876;DHT22;34689;51.644;5.618;2023-03-18T16:25:18;15.90;99.90
48876;DHT22;34689;51.644;5.618;2023-03-18T16:27:46;15.90;99.90
48876;DHT22;34689;51.644;5.618;2023-03-18T16:30:21;15.90;99.90
48876;DHT22;34689;51.644;5.618;2023-03-18T16:32:48;15.90;99.90
48876;DHT22;34689;51.644;5.618;2023-03-18T16:35:15;15.80;99.90
48876;DHT22;34689;51.644;5.618;2023-03-18T16:37:42;15.80;99.90
48876;DHT22;34689;51.644;5.618;2023-03-18T16:40:19;15.80;99.90
48876;DHT22;34689;51.644;5.618;2023-03-18T16:42:45;15.70;99.90
48876;DHT22;34689;51.644;5.618;2023-03-18T16:45:18;15.70;99.90
48876;DHT22;34689;51.644;5.618;2023-03-18T16:47:45;15.70;99.90
48876;DHT22;34689;51.644;5.618;2023-03-18T16:52:43;15.70;99.90
48876;DHT22;34689;51.644;5.618;2023-03-18T16:55:13;15.60;99.90
48876;DHT22;34689;51.644;5.618;2023-03-18T16:57:48;15.60;99.90
48876;DHT22;34689;51.644;5.618;2023-03-18T17:00:21;15.60;99.90
48876;DHT22;34689;51.644;5.618;2023-03-18T17:02:50;15.50;99.90
48876;DHT22;34689;51.644;5.618;2023-03-18T17:05:18;15.50;99.90
48876;DHT22;34689;51.644;5.618;2023-03-18T17:07:44;15.50;99.90
48876;DHT22;34689;51.644;5.618;2023-03-18T17:10:13;15.50;99.90
48876;DHT22;34689;51.644;5.618;2023-03-18T17:12:51;15.40;99.90
48876;DHT22;34689;51.644;5.618;2023-03-18T17:15:30;15.40;99.90
48876;DHT22;34689;51.644;5.618;2023-03-18T17:17:59;15.40;99.90
48876;DHT22;34689;51.644;5.618;2023-03-18T17:20:29;15.40;99.90
48876;DHT22;34689;51.644;5.618;2023-03-18T17:22:57;15.30;99.90
48876;DHT22;34689;51.644;5.618;2023-03-18T17:25:25;15.30;99.90
48876;DHT22;34689;51.644;5.618;2023-03-18T17:28:03;15.30;99.90
48876;DHT22;34689;51.644;5.618;2023-03-18T17:30:39;15.20;99.90
48876;DHT22;34689;51.644;5.618;2023-03-18T17:33:22;15.20;99.90
48876;DHT22;34689;51.644;5.618;2023-03-18T17:35:49;15.20;99.90
48876;DHT22;34689;51.644;5.618;2023-03-18T17:38:17;15.20;99.90
48876;DHT22;34689;51.644;5.618;2023-03-18T17:40:43;15.10;99.90
48876;DHT22;34689;51.644;5.618;2023-03-18T17:43:24;15.10;99.90
48876;DHT22;34689;51.644;5.618;2023-03-18T17:45:50;15.00;99.90
48876;DHT22;34689;51.644;5.618;2023-03-18T17:50:45;15.00;99.90